Time;durP1;ratioP1;P1;durP2;ratioP2;P2;SDS_P1;SDS_P2;PMS_P1;PMS_P2;Temp;Humidity;BMP_temperature;BMP_pressure;BME280_temperature;BME280_humidity;BME280_pressure;Samples;Min_cycle;Max_cycle;Signal;HPM_P1;HPM_P2
2022/12/15 00:38:44;;;;;;;75.83;39.33;;;;;;;-3.88;85.25;99368.21;1680370;85;20984;-78
2022/12/15 00:41:17;;;;;;;74.47;38.20;;;;;;;-3.88;85.25;99373.33;1680583;85;21085;-77
2022/12/15 00:43:45;;;;;;;80.07;39.30;;;;;;;-3.88;85.27;99373.33;1680499;85;20902;-77
2022/12/15 00:48:58;;;;;;;82.83;40.17;;;;;;;-3.89;85.29;99379.28;1676887;85;21989;-77
2022/12/15 01:21:48;;;;;;;82.63;40.43;;;;;;;-3.86;85.65;99408.73;1666011;85;21105;-77
2022/12/15 01:24:15;;;;;;;80.73;42.07;;;;;;;-3.85;85.68;99399.37;1666190;86;21570;-77
2022/12/15 01:26:42;;;;;;;85.20;42.80;;;;;;;-3.82;85.79;99400.23;1665892;86;21101;-80
2022/12/15 01:29:09;;;;;;;90.10;43.47;;;;;;;-3.79;85.74;99408.36;1666076;86;21956;-77
2022/12/15 01:31:36;;;;;;;83.33;44.50;;;;;;;-3.78;85.77;99402.38;1665804;86;21054;-77
2022/12/15 01:34:04;;;;;;;81.27;43.37;;;;;;;-3.73;85.76;99397.29;1677318;85;21496;-78
2022/12/15 01:36:30;;;;;;;99.77;45.43;;;;;;;-3.71;85.74;99403.28;1677026;84;21041;-77
2022/12/15 01:38:57;;;;;;;98.50;45.00;;;;;;;-3.69;85.70;99402.84;1677261;84;21290;-77
2022/12/15 01:41:25;;;;;;;94.67;46.83;;;;;;;-3.66;85.69;99405.41;1676986;84;21147;-78
2022/12/15 01:43:52;;;;;;;96.43;46.17;;;;;;;-3.62;85.70;99407.16;1677214;85;21041;-77
2022/12/15 01:46:22;;;;;;;99.47;47.30;;;;;;;-3.62;85.61;99409.72;1677075;84;20949;-77
2022/12/15 01:49:01;;;;;;;98.72;48.58;;;;;;;-3.60;85.59;99413.14;1677632;83;21037;-78
2022/12/15 01:51:36;;;;;;;92.85;46.40;;;;;;;-3.62;85.55;99411.84;1654377;86;21042;-78
2022/12/15 01:54:22;;;;;;;91.67;45.97;;;;;;;-3.62;85.63;99412.27;1684382;83;21149;-77
2022/12/15 01:56:54;;;;;;;108.40;50.80;;;;;;;-3.61;85.81;99419.09;1660450;85;21005;-78
2022/12/15 01:59:32;;;;;;;97.40;48.30;;;;;;;-3.58;85.88;99420.39;1684778;83;21034;-78
2022/12/15 02:01:59;;;;;;;100.10;46.50;;;;;;;-3.60;85.80;99425.52;1684492;85;21073;-77
2022/12/15 02:04:26;;;;;;;97.87;48.47;;;;;;;-3.57;85.86;99430.20;1684725;84;21038;-78
2022/12/15 02:06:53;;;;;;;99.37;50.00;;;;;;;-3.57;85.84;99429.80;1684492;85;21937;-77
2022/12/15 02:09:24;;;;;;;102.87;50.47;;;;;;;-3.57;85.84;99431.09;1684666;83;21490;-77
2022/12/15 02:12:16;;;;;;;101.67;49.00;;;;;;;-3.59;85.83;99423.38;1684672;84;21508;-77
2022/12/15 02:15:26;;;;;;;94.33;46.23;;;;;;;-3.56;85.88;99423.82;1684748;84;21286;-78
2022/12/15 02:18:23;;;;;;;94.05;46.92;;;;;;;-3.54;85.94;99422.13;1684616;85;21002;-78
2022/12/15 02:21:17;;;;;;;92.33;47.03;;;;;;;-3.56;85.82;99422.54;1674939;84;21126;-78
2022/12/15 02:24:09;;;;;;;100.80;47.43;;;;;;;-3.57;85.92;99427.64;1684194;84;21047;-78
2022/12/15 02:26:54;;;;;;;102.23;48.80;;;;;;;-3.59;85.92;99430.22;1684692;84;21543;-78
2022/12/15 02:30:07;;;;;;;96.63;48.97;;;;;;;-3.58;86.08;99431.91;1682487;84;21049;-78
2022/12/15 02:32:49;;;;;;;113.90;51.20;;;;;;;-3.56;86.24;99445.59;1684326;84;21042;-78
2022/12/15 02:35:50;;;;;;;107.37;51.80;;;;;;;-3.55;86.19;99451.56;1679457;84;21146;-77
2022/12/15 02:38:37;;;;;;;110.10;51.20;;;;;;;-3.54;86.22;99454.15;1665871;86;21500;-78
2022/12/15 02:41:07;;;;;;;121.73;54.73;;;;;;;-3.52;86.26;99465.27;1653718;86;21134;-78
2022/12/15 02:43:37;;;;;;;;;;;;;;;-3.51;86.30;99470.81;1651934;86;21077;-78
2022/12/15 02:46:15;;;;;;;100.40;49.03;;;;;;;-3.50;86.28;99473.80;1653078;86;20568;-78
2022/12/15 02:48:51;;;;;;;98.07;48.43;;;;;;;-3.50;86.24;99477.63;1652437;86;21169;-79
2022/12/15 02:51:26;;;;;;;94.03;44.23;;;;;;;-3.49;86.19;99479.77;1674000;84;21040;-78
2022/12/15 02:54:07;;;;;;;103.07;49.33;;;;;;;-3.48;86.09;99482.34;1673820;85;21563;-78
2022/12/15 02:56:45;;;;;;;98.73;48.03;;;;;;;-3.49;86.03;99483.21;1674191;85;21049;-79
2022/12/15 02:59:26;;;;;;;96.53;48.83;;;;;;;-3.47;86.08;99491.73;1673258;85;21532;-77
2022/12/15 03:02:05;;;;;;;84.20;42.90;;;;;;;-3.44;86.18;99496.02;1673343;85;22102;-78
2022/12/15 03:04:32;;;;;;;92.20;46.20;;;;;;;-3.43;86.10;99492.20;1651816;85;21061;-77
2022/12/15 03:07:07;;;;;;;82.73;46.13;;;;;;;-3.42;86.15;99503.30;1674515;85;21038;-78
2022/12/15 03:09:35;;;;;;;88.17;47.03;;;;;;;-3.40;86.20;99502.45;1674146;85;21480;-78
2022/12/15 03:12:02;;;;;;;92.40;44.40;;;;;;;-3.37;86.23;99506.74;1674166;85;21072;-77
2022/12/15 03:14:29;;;;;;;99.90;49.93;;;;;;;-3.36;86.19;99507.16;1673836;85;21313;-77
2022/12/15 03:16:56;;;;;;;195.13;96.87;;;;;;;-3.34;86.22;99513.16;1683177;84;21035;-77
2022/12/15 03:19:24;;;;;;;117.03;56.10;;;;;;;-3.32;86.23;99513.19;1683248;84;21042;-77
2022/12/15 03:21:52;;;;;;;80.57;42.33;;;;;;;-3.29;86.25;99518.32;1666304;85;21428;-78
2022/12/15 03:24:19;;;;;;;80.43;42.00;;;;;;;-3.28;86.22;99518.31;1682989;84;21067;-77
2022/12/15 03:26:48;;;;;;;81.10;40.80;;;;;;;-3.25;86.26;99523.45;1683423;84;21176;-77
2022/12/15 03:29:17;;;;;;;86.70;41.20;;;;;;;-3.22;86.22;99527.73;1682974;84;21019;-78
2022/12/15 03:31:44;;;;;;;90.73;45.37;;;;;;;-3.20;86.18;99529.88;1683151;84;21036;-77
2022/12/15 03:34:11;;;;;;;84.90;43.17;;;;;;;-3.20;86.05;99528.60;1683071;84;21047;-77
2022/12/15 03:36:39;;;;;;;81.47;42.00;;;;;;;-3.20;86.09;99533.73;1683264;84;21035;-77
2022/12/15 03:39:06;;;;;;;79.80;40.33;;;;;;;-3.18;86.07;99534.60;1683068;84;21790;-77
2022/12/15 03:41:33;;;;;;;82.07;41.07;;;;;;;-3.18;85.99;99538.45;1683205;84;21047;-78
2022/12/15 03:44:01;;;;;;;77.23;40.33;;;;;;;-3.17;86.08;99542.70;1683126;84;21023;-77
2022/12/15 03:46:28;;;;;;;82.07;39.03;;;;;;;-3.13;86.14;99539.33;1683226;84;21007;-77
2022/12/15 03:48:55;;;;;;;79.17;40.50;;;;;;;-3.10;86.03;99537.17;1683134;84;21042;-77
2022/12/15 03:51:22;;;;;;;75.60;39.57;;;;;;;-3.08;86.05;99531.63;1690227;84;21090;-77
2022/12/15 03:53:49;;;;;;;80.17;40.13;;;;;;;-3.06;86.09;99530.80;1691430;84;20999;-77
2022/12/15 03:56:17;;;;;;;74.57;40.50;;;;;;;-3.05;86.03;99533.78;1691531;84;21280;-77
2022/12/15 03:58:44;;;;;;;78.63;41.00;;;;;;;-3.01;86.05;99549.62;1691648;84;21024;-77
2022/12/15 04:01:22;;;;;;;76.23;40.97;;;;;;;-3.00;86.14;99551.75;1691523;84;21741;-78
2022/12/15 04:03:49;;;;;;;80.17;40.50;;;;;;;-3.00;86.03;99558.16;1691772;84;21125;-77
2022/12/15 04:06:16;;;;;;;81.20;40.33;;;;;;;-2.98;85.96;99553.91;1691316;84;21426;-78
2022/12/15 04:08:43;;;;;;;76.30;40.83;;;;;;;-2.99;85.84;99558.18;1691614;84;20993;-78
2022/12/15 04:11:10;;;;;;;74.97;39.77;;;;;;;-2.98;85.81;99561.59;1691690;84;21520;-77
2022/12/15 04:13:37;;;;;;;75.80;39.53;;;;;;;-2.99;85.64;99562.45;1691449;84;21506;-78
2022/12/15 04:16:05;;;;;;;87.40;43.47;;;;;;;-2.99;85.73;99567.59;1691625;84;21087;-78
2022/12/15 04:18:32;;;;;;;89.07;45.60;;;;;;;-2.99;85.66;99570.15;1691578;84;21007;-78
2022/12/15 04:20:59;;;;;;;94.03;47.03;;;;;;;-2.98;85.67;99573.13;1691427;84;21043;-78
2022/12/15 04:23:26;;;;;;;99.27;48.97;;;;;;;-3.00;85.66;99570.98;1691796;84;21051;-78
2022/12/15 05:32:26;;;;;;;54.43;25.67;;;;;;;-2.85;85.89;99663.38;1683134;84;21039;-78
2022/12/15 05:34:53;;;;;;;42.37;22.87;;;;;;;-2.85;85.71;99668.94;1683030;84;21050;-78
2022/12/15 05:37:20;;;;;;;38.10;22.10;;;;;;;-2.85;85.59;99682.61;1682915;84;21557;-78
2022/12/15 05:39:47;;;;;;;38.63;20.63;;;;;;;-2.85;85.48;99677.91;1682912;84;21038;-78
2022/12/15 05:42:14;;;;;;;37.43;19.07;;;;;;;-2.83;85.43;99683.88;1683003;84;21539;-78
2022/12/15 05:44:42;;;;;;;37.53;18.87;;;;;;;-2.81;85.34;99688.18;1683055;84;21043;-78
2022/12/15 05:47:10;;;;;;;36.03;18.87;;;;;;;-2.77;85.25;99692.89;1682916;84;21469;-78
2022/12/15 05:49:37;;;;;;;34.83;18.73;;;;;;;-2.74;85.21;99696.78;1682909;84;21964;-78
2022/12/15 05:52:05;;;;;;;36.43;19.87;;;;;;;-2.72;85.11;99701.47;1689846;84;20995;-78
2022/12/15 05:54:32;;;;;;;40.40;21.43;;;;;;;-2.71;85.04;99699.36;1691390;84;21526;-78
2022/12/15 05:56:59;;;;;;;44.27;22.27;;;;;;;-2.68;85.07;99703.66;1691377;84;21031;-78
2022/12/15 05:59:27;;;;;;;45.03;22.17;;;;;;;-2.66;85.04;99702.81;1691588;84;21035;-77
2022/12/15 06:01:54;;;;;;;46.87;24.03;;;;;;;-2.62;85.05;99701.11;1691469;84;21220;-80
2022/12/15 06:04:21;;;;;;;49.40;26.00;;;;;;;-2.61;84.89;99713.93;1691705;84;21039;-78
2022/12/15 06:06:49;;;;;;;54.87;28.43;;;;;;;-2.61;84.90;99715.21;1691352;84;21027;-77
2022/12/15 06:09:16;;;;;;;52.57;27.27;;;;;;;-2.61;84.83;99718.21;1691706;84;21020;-77
2022/12/15 06:11:43;;;;;;;53.93;29.07;;;;;;;-2.61;84.86;99724.19;1691499;84;21075;-78
2022/12/15 06:14:12;;;;;;;49.90;27.33;;;;;;;-2.60;84.91;99727.21;1691642;84;21110;-77
2022/12/15 06:16:39;;;;;;;49.60;27.47;;;;;;;-2.62;84.74;99728.91;1691378;84;21043;-77
2022/12/15 06:19:07;;;;;;;48.80;26.47;;;;;;;-2.60;84.69;99739.19;1691673;84;21510;-77
2022/12/15 06:21:35;;;;;;;53.27;28.70;;;;;;;-2.60;84.66;99746.45;1691386;84;21090;-78
2022/12/15 06:24:07;;;;;;;52.63;28.43;;;;;;;-2.59;84.63;99749.44;1691596;84;21050;-77
2022/12/15 06:26:37;;;;;;;57.17;28.60;;;;;;;-2.61;84.45;99757.55;1691421;84;21199;-78
2022/12/15 06:29:07;;;;;;;47.83;26.00;;;;;;;-2.67;84.42;99764.36;1691307;84;20959;-78
2022/12/15 06:31:36;;;;;;;59.03;29.98;;;;;;;-2.72;84.40;99769.02;1691474;84;20967;-77
2022/12/15 06:34:06;;;;;;;65.33;33.77;;;;;;;-2.71;84.53;99772.47;1691539;84;21529;-76
2022/12/15 06:36:33;;;;;;;;;;;;;;;-2.72;84.48;99773.30;1703190;83;21000;-76
2022/12/15 06:39:03;;;;;;;57.37;29.27;;;;;;;-2.75;84.41;99779.69;1693683;83;21128;-77
2022/12/15 06:41:30;;;;;;;54.93;27.67;;;;;;;-2.78;84.55;99774.55;1690560;83;21047;-77
2022/12/15 06:43:58;;;;;;;53.13;29.20;;;;;;;-2.79;84.53;99783.95;1694135;83;21034;-77
2022/12/15 06:46:27;;;;;;;58.63;29.70;;;;;;;-2.83;84.36;99777.06;1676358;84;20945;-75
2022/12/15 06:48:54;;;;;;;55.80;29.30;;;;;;;-2.86;84.42;99789.02;1677050;84;21040;-76
2022/12/15 06:51:21;;;;;;;53.63;27.20;;;;;;;-2.87;84.52;99791.16;1685216;83;21865;-76
2022/12/15 06:53:49;;;;;;;48.50;26.00;;;;;;;-2.86;84.56;99800.55;1676829;84;20972;-75
2022/12/15 06:56:27;;;;;;;50.70;26.77;;;;;;;-2.88;84.53;99801.84;1675523;84;21104;-74
2022/12/15 06:58:55;;;;;;;51.80;26.50;;;;;;;-2.86;84.56;99801.84;1680374;84;21521;-73
2022/12/15 07:01:23;;;;;;;53.60;27.83;;;;;;;-2.86;84.52;99805.25;1696017;83;21049;-75
2022/12/15 07:03:53;;;;;;;54.83;31.37;;;;;;;-2.87;84.53;99801.42;1693970;83;21149;-75
2022/12/15 07:06:20;;;;;;;59.77;32.23;;;;;;;-2.88;84.50;99804.81;1709900;82;21033;-81
2022/12/15 07:08:55;;;;;;;52.13;28.10;;;;;;;-2.89;84.53;99803.10;1696025;83;21045;-77
2022/12/15 07:11:22;;;;;;;57.10;30.43;;;;;;;-2.90;84.59;99803.96;1721264;83;21483;-76
2022/12/15 07:13:51;;;;;;;66.13;34.93;;;;;;;-2.91;84.63;99804.36;1717814;83;21049;-75
2022/12/15 07:16:20;;;;;;;53.03;28.03;;;;;;;-2.92;84.65;99806.50;1716503;83;21583;-74
2022/12/15 07:18:48;;;;;;;57.07;29.80;;;;;;;-2.92;84.59;99815.47;1716714;83;21112;-74
2022/12/15 07:21:15;;;;;;;52.47;27.17;;;;;;;-2.96;84.51;99818.45;1705571;83;22376;-76
2022/12/15 07:23:43;;;;;;;51.10;27.13;;;;;;;-2.97;84.54;99817.98;1718995;83;21499;-74
2022/12/15 07:26:10;;;;;;;46.60;25.33;;;;;;;-2.98;84.52;99820.56;1713542;83;21527;-74
2022/12/15 07:28:37;;;;;;;52.57;24.97;;;;;;;-3.01;84.45;99823.95;1711415;83;21177;-78
2022/12/15 07:31:08;;;;;;;51.83;26.77;;;;;;;-3.05;84.36;99838.00;1704591;83;21053;-77
2022/12/15 07:33:36;;;;;;;45.03;24.82;;;;;;;-3.08;84.43;99840.54;1713998;83;21089;-75
2022/12/15 07:36:04;;;;;;;51.17;26.77;;;;;;;-3.07;84.55;99846.13;1695077;83;21046;-75
2022/12/15 07:38:31;;;;;;;53.67;26.93;;;;;;;-3.08;84.61;99841.39;1694881;83;21037;-81
2022/12/15 07:41:04;;;;;;;52.60;26.93;;;;;;;-3.09;84.65;99847.81;1695211;83;21284;-74
2022/12/15 07:43:31;;;;;;;47.33;25.53;;;;;;;-3.10;84.62;99854.64;1694885;83;20926;-74
2022/12/15 07:45:59;;;;;;;50.27;24.70;;;;;;;-3.14;84.58;99862.70;1694761;83;21033;-74
2022/12/15 07:48:26;;;;;;;43.40;23.63;;;;;;;-3.16;84.50;99863.53;1694822;83;21041;-75
2022/12/15 07:50:56;;;;;;;47.47;24.10;;;;;;;-3.16;84.56;99872.50;1695441;83;21053;-76
2022/12/15 07:53:26;;;;;;;48.65;24.60;;;;;;;-3.17;84.56;99878.48;1701369;83;21181;-76
2022/12/15 07:55:58;;;;;;;44.40;23.55;;;;;;;-3.18;84.52;99875.07;1697242;83;25400;-75
2022/12/15 07:58:27;;;;;;;35.47;20.13;;;;;;;-3.19;84.46;99875.92;1698814;83;21037;-76
2022/12/15 08:01:07;;;;;;;41.27;23.00;;;;;;;-3.20;84.35;99881.02;1698890;83;21056;-73
2022/12/15 08:03:35;;;;;;;39.60;20.27;;;;;;;-3.21;84.34;99889.56;1686686;83;21622;-74
2022/12/15 08:06:07;;;;;;;33.27;18.27;;;;;;;-3.25;84.02;99888.66;1663209;85;21282;-76
2022/12/15 08:08:35;;;;;;;30.03;16.37;;;;;;;-3.27;83.87;99895.88;1672850;84;21066;-85
2022/12/15 08:11:09;;;;;;;29.17;16.43;;;;;;;-3.29;83.70;99889.91;1662842;84;21069;-74
2022/12/15 08:13:37;;;;;;;32.17;17.50;;;;;;;-3.27;83.74;99889.08;1669103;84;21066;-75
2022/12/15 08:16:05;;;;;;;36.57;18.80;;;;;;;-3.22;83.68;99891.67;1680837;84;21038;-75
2022/12/15 08:18:32;;;;;;;36.63;18.53;;;;;;;-3.19;83.61;99887.86;1677941;84;21125;-75
2022/12/15 08:21:07;;;;;;;30.03;16.93;;;;;;;-3.17;83.50;99902.84;1679897;84;21098;-75
2022/12/15 08:23:36;;;;;;;36.10;18.13;;;;;;;-3.16;83.36;99910.95;1659766;83;21064;-76
2022/12/15 08:26:13;;;;;;;32.90;18.37;;;;;;;-3.17;83.16;99906.69;1674658;84;21066;-76
2022/12/15 08:28:41;;;;;;;29.13;15.83;;;;;;;-3.21;83.05;99914.77;1667676;84;21050;-76
2022/12/15 08:31:13;;;;;;;31.40;17.50;;;;;;;-3.20;83.13;99916.91;1674743;84;21157;-76
2022/12/15 08:33:41;;;;;;;30.17;16.57;;;;;;;-3.17;83.13;99924.63;1681953;84;21046;-76
2022/12/15 08:36:12;;;;;;;37.07;19.23;;;;;;;-3.15;83.15;99926.37;1680846;84;21097;-76
2022/12/15 08:38:40;;;;;;;37.03;19.02;;;;;;;-3.14;83.08;99920.81;1710791;83;21030;-79
2022/12/15 08:41:11;;;;;;;31.23;18.20;;;;;;;-3.15;82.93;99931.49;1717624;83;21038;-76
2022/12/15 08:43:39;;;;;;;33.73;17.67;;;;;;;-3.15;82.95;99934.48;1717903;83;21076;-77
2022/12/15 08:46:07;;;;;;;34.13;19.83;;;;;;;-3.13;82.87;99934.09;1701285;83;21394;-78
2022/12/15 08:48:35;;;;;;;41.07;21.90;;;;;;;-3.17;82.76;99937.02;1700634;83;21045;-80
2022/12/15 08:51:03;;;;;;;38.27;20.63;;;;;;;-3.16;82.73;99935.30;1697499;83;21045;-75
2022/12/15 08:53:29;;;;;;;33.57;18.23;;;;;;;-3.18;82.61;99949.41;1702909;83;21365;-88
2022/12/15 08:56:04;;;;;;;31.33;17.27;;;;;;;-3.19;82.54;99951.94;1698528;83;21052;-76
2022/12/15 08:58:32;;;;;;;30.57;16.47;;;;;;;-3.19;82.70;99955.78;1694285;83;20931;-80
2022/12/15 09:01:09;;;;;;;30.20;16.77;;;;;;;-3.22;82.54;99950.20;1700734;83;21050;-77
2022/12/15 09:03:37;;;;;;;36.37;18.97;;;;;;;-3.22;82.50;99954.04;1697613;83;21037;-81
2022/12/15 09:06:09;;;;;;;33.03;18.83;;;;;;;-3.18;82.64;99961.37;1699292;83;21117;-75
2022/12/15 09:08:36;;;;;;;32.77;17.67;;;;;;;-3.17;82.61;99965.64;1700249;83;22067;-75
2022/12/15 09:11:07;;;;;;;38.37;18.63;;;;;;;-3.16;82.57;99964.78;1697284;83;21057;-75
2022/12/15 09:13:34;;;;;;;30.90;17.43;;;;;;;-3.16;82.55;99962.22;1697458;83;21921;-75
2022/12/15 09:16:06;;;;;;;32.80;16.63;;;;;;;-3.20;82.36;99957.92;1696864;83;21506;-75
2022/12/15 09:18:34;;;;;;;30.13;17.40;;;;;;;-3.21;82.40;99964.75;1696235;83;21046;-77
2022/12/15 09:21:06;;;;;;;32.43;17.47;;;;;;;-3.20;82.29;99967.74;1697865;83;21399;-75
2022/12/15 09:23:34;;;;;;;37.23;18.60;;;;;;;-3.20;82.20;99960.48;1695125;83;21088;-76
2022/12/15 09:26:04;;;;;;;43.40;21.03;;;;;;;-3.30;81.93;99967.61;1704540;83;21029;-74
2022/12/15 09:28:31;;;;;;;39.48;19.90;;;;;;;-3.39;81.89;99965.80;1721921;82;21037;-74
2022/12/15 09:31:04;;;;;;;37.70;20.27;;;;;;;-3.40;82.14;99970.08;1705968;83;21694;-74
2022/12/15 09:33:31;;;;;;;47.50;23.93;;;;;;;-3.41;82.15;99968.36;1695969;83;21140;-74
2022/12/15 09:35:58;;;;;;;38.20;20.13;;;;;;;-3.41;82.21;99967.08;1699763;83;21466;-74
2022/12/15 09:38:25;;;;;;;41.33;21.03;;;;;;;-3.38;82.26;99976.48;1696102;83;21483;-74
2022/12/15 09:40:52;;;;;;;37.97;20.17;;;;;;;-3.34;82.38;99973.56;1696453;83;21475;-74
2022/12/15 09:43:25;;;;;;;39.73;19.20;;;;;;;-3.36;82.19;99974.38;1696130;83;21585;-74
2022/12/15 09:46:09;;;;;;;38.77;22.27;;;;;;;-3.35;82.28;99968.86;1696506;83;21091;-72
2022/12/15 09:48:40;;;;;;;36.73;20.87;;;;;;;-3.31;82.45;99969.75;1694481;83;21598;-75
2022/12/15 09:51:12;;;;;;;46.10;25.77;;;;;;;-3.27;82.47;99971.49;1696644;83;21029;-74
2022/12/15 09:53:39;;;;;;;45.80;24.10;;;;;;;-3.22;82.44;99968.56;1696068;83;21482;-74
2022/12/15 09:56:20;;;;;;;43.63;22.93;;;;;;;-3.22;82.40;99975.83;1696463;83;21518;-75
2022/12/15 09:58:55;;;;;;;40.60;22.57;;;;;;;-3.15;82.56;99978.06;1691629;83;21136;-74
2022/12/15 10:01:38;;;;;;;38.20;21.73;;;;;;;-3.05;82.58;99976.45;1696285;83;21057;-74
2022/12/15 10:04:17;;;;;;;34.33;19.90;;;;;;;-3.01;82.26;99964.97;1696308;83;21089;-74
2022/12/15 10:06:51;;;;;;;31.27;17.50;;;;;;;-3.01;82.16;99970.09;1700374;83;20999;-74
2022/12/15 10:09:23;;;;;;;33.10;18.80;;;;;;;-2.96;82.07;99962.04;1693626;84;21037;-75
2022/12/15 10:12:04;;;;;;;34.67;20.37;;;;;;;-2.87;81.92;99971.95;1698512;84;21245;-74
2022/12/15 10:15:03;;;;;;;34.73;21.37;;;;;;;-2.79;81.95;99971.61;1697498;84;21017;-79
2022/12/15 10:17:51;;;;;;;38.63;20.03;;;;;;;-2.65;81.83;99971.33;1698657;84;21554;-75
2022/12/15 10:20:26;;;;;;;35.40;19.17;;;;;;;-2.51;81.78;99972.30;1698757;84;21037;-75
2022/12/15 10:23:04;;;;;;;33.53;17.80;;;;;;;-2.45;81.39;99963.80;1698647;84;21029;-76
2022/12/15 10:25:31;;;;;;;31.13;18.47;;;;;;;-2.43;81.16;99958.69;1697333;84;21927;-75
2022/12/15 10:28:27;;;;;;;35.53;19.67;;;;;;;-2.28;81.08;99969.92;1698301;84;21081;-75
2022/12/15 10:31:02;;;;;;;38.77;21.67;;;;;;;-2.03;80.96;99969.69;1689206;84;21077;-75
2022/12/15 10:33:37;;;;;;;30.67;17.80;;;;;;;-1.73;81.15;99975.02;1698017;84;20998;-75
2022/12/15 10:36:14;;;;;;;30.70;18.87;;;;;;;-1.48;81.13;99974.30;1698855;84;21017;-75
2022/12/15 10:38:46;;;;;;;36.17;21.37;;;;;;;-1.24;80.98;99971.42;1698639;84;21142;-75
2022/12/15 10:41:24;;;;;;;33.23;20.73;;;;;;;-1.06;80.58;99974.47;1698863;84;20990;-75
2022/12/15 10:43:53;;;;;;;30.13;19.13;;;;;;;-0.94;80.36;99979.24;1698716;84;21470;-75
2022/12/15 10:46:24;;;;;;;35.37;19.83;;;;;;;-0.64;80.11;99984.00;1698835;84;21076;-75
2022/12/15 10:49:09;;;;;;;32.10;19.50;;;;;;;-0.31;79.98;99983.18;1698716;84;21041;-76
2022/12/15 10:51:56;;;;;;;36.43;19.63;;;;;;;0.05;79.83;99976.73;1697150;84;21139;-76
2022/12/15 10:54:26;;;;;;;31.90;19.53;;;;;;;0.44;79.48;99985.70;1698647;84;21001;-76
2022/12/15 10:57:00;;;;;;;30.70;18.30;;;;;;;0.78;79.17;99993.33;1698524;84;21054;-76
2022/12/15 10:59:32;;;;;;;28.47;17.70;;;;;;;1.01;78.45;99997.53;1698674;84;20922;-77
2022/12/15 11:02:32;;;;;;;29.73;18.47;;;;;;;1.02;78.28;100001.38;1698636;84;21036;-76
2022/12/15 11:05:14;;;;;;;27.13;17.92;;;;;;;1.22;78.26;100001.72;1698706;84;21152;-76
2022/12/15 11:07:54;;;;;;;33.00;18.97;;;;;;;1.56;78.03;100001.10;1698645;84;21507;-76
2022/12/15 11:12:50;;;;;;;28.10;17.57;;;;;;;1.66;77.23;100001.44;1698711;84;21519;-76
2022/12/15 11:13:14;;;;;;;29.40;18.33;;;;;;;1.76;76.77;100003.53;1694804;84;21002;-77
2022/12/15 11:15:53;;;;;;;29.83;18.67;;;;;;;1.84;76.46;100006.92;1698679;84;21033;-76
2022/12/15 11:18:40;;;;;;;28.97;18.63;;;;;;;1.70;75.83;100012.19;1698685;84;21148;-76
2022/12/15 11:21:15;;;;;;;29.70;18.77;;;;;;;1.73;75.64;100013.89;1698114;84;21017;-76
2022/12/15 11:23:54;;;;;;;29.23;18.27;;;;;;;1.44;75.42;100015.36;1696257;84;21025;-76
2022/12/15 11:26:56;;;;;;;32.50;20.27;;;;;;;1.20;75.11;100022.83;1698597;84;21512;-76
2022/12/15 11:29:55;;;;;;;27.53;18.47;;;;;;;1.06;74.97;100032.78;1697709;84;21081;-76
2022/12/15 11:32:29;;;;;;;27.17;17.50;;;;;;;1.08;75.25;100034.94;1698984;84;21215;-76
2022/12/15 11:34:57;;;;;;;37.80;22.00;;;;;;;1.24;75.28;100033.11;1689098;83;21573;-78
2022/12/15 11:37:46;;;;;;;29.70;19.97;;;;;;;1.60;75.28;100032.48;1692095;84;21524;-78
2022/12/15 11:40:36;;;;;;;34.80;21.30;;;;;;;1.94;75.34;100034.42;1688795;83;21038;-76
2022/12/15 11:43:25;;;;;;;33.25;20.82;;;;;;;2.22;75.00;100033.75;1684841;84;21037;-74
2022/12/15 11:46:36;;;;;;;35.03;20.30;;;;;;;2.31;74.68;100034.09;1689568;84;21103;-74
2022/12/15 11:49:29;;;;;;;31.37;19.77;;;;;;;2.24;74.44;100029.84;1662886;85;21593;-76
2022/12/15 11:52:35;;;;;;;32.93;21.53;;;;;;;2.26;74.23;100025.52;1637613;85;21048;-77
2022/12/15 11:55:39;;;;;;;28.37;18.87;;;;;;;2.30;74.14;100015.99;1665034;85;21050;-77
2022/12/15 11:58:51;;;;;;;31.20;19.53;;;;;;;2.32;73.70;100022.02;1674238;85;21038;-75
2022/12/15 12:01:46;;;;;;;28.47;17.90;;;;;;;2.44;73.78;100022.77;1672793;84;21192;-75
2022/12/15 12:04:21;;;;;;;29.10;18.83;;;;;;;2.53;73.41;100020.96;1671260;85;21061;-80
2022/12/15 12:07:21;;;;;;;28.70;19.53;;;;;;;2.58;73.25;100024.36;1675324;84;21050;-81
2022/12/15 12:10:22;;;;;;;27.97;18.53;;;;;;;2.67;72.99;100028.14;1673056;84;21109;-74
2022/12/15 12:13:10;;;;;;;29.97;18.57;;;;;;;2.63;72.72;100023.44;1671268;85;21581;-76
2022/12/15 12:16:25;;;;;;;30.53;19.77;;;;;;;2.60;72.28;100027.77;1667183;84;21325;-77
2022/12/15 12:19:14;;;;;;;30.37;19.00;;;;;;;2.62;72.61;100033.80;1665551;84;21548;-76
2022/12/15 12:21:47;;;;;;;31.77;20.60;;;;;;;2.63;72.37;100037.67;1667459;85;21564;-78
2022/12/15 12:24:46;;;;;;;30.37;19.63;;;;;;;2.59;72.12;100042.44;1667768;85;21070;-80
2022/12/15 12:27:25;;;;;;;31.40;20.47;;;;;;;2.53;71.89;100033.45;1688028;83;21014;-74
2022/12/15 12:30:12;;;;;;;31.77;19.77;;;;;;;2.51;72.06;100030.45;1697823;84;21102;-74
2022/12/15 12:33:17;;;;;;;31.73;19.13;;;;;;;2.46;71.81;100031.34;1689197;84;20990;-76
2022/12/15 12:36:11;;;;;;;35.47;21.57;;;;;;;2.37;71.84;100032.73;1691165;84;21019;-80
2022/12/15 12:38:45;;;;;;;31.80;19.27;;;;;;;2.41;71.88;100025.80;1683071;84;21013;-77
2022/12/15 12:41:42;;;;;;;30.37;18.83;;;;;;;2.34;71.40;100020.28;1698416;83;21029;-76
2022/12/15 12:44:20;;;;;;;30.30;18.87;;;;;;;2.29;71.61;100020.31;1689884;84;21956;-77
2022/12/15 12:46:53;;;;;;;29.47;18.87;;;;;;;2.25;71.27;100017.35;1686023;84;21453;-76
2022/12/15 12:49:52;;;;;;;32.33;18.87;;;;;;;2.23;71.05;100014.77;1693196;84;21029;-76
2022/12/15 12:52:31;;;;;;;37.50;22.47;;;;;;;2.19;71.04;100012.20;1694664;84;21029;-75
2022/12/15 12:55:15;;;;;;;35.30;22.53;;;;;;;2.13;71.12;100009.69;1690856;84;20964;-75
2022/12/15 12:57:43;;;;;;;37.90;22.60;;;;;;;2.04;70.89;100011.06;1688984;84;21148;-75
2022/12/15 13:00:30;;;;;;;34.50;21.73;;;;;;;1.88;70.86;100014.20;1695091;84;21065;-75
2022/12/15 13:03:19;;;;;;;32.30;18.83;;;;;;;1.71;70.67;100013.05;1686445;84;21055;-76
2022/12/15 13:05:50;;;;;;;31.33;19.63;;;;;;;1.53;70.80;100020.50;1694462;84;21042;-83
2022/12/15 13:08:30;;;;;;;33.27;19.03;;;;;;;1.37;70.83;100025.32;1695474;84;21069;-76
2022/12/15 13:11:01;;;;;;;32.23;19.37;;;;;;;1.23;70.98;100026.69;1691942;84;21883;-76
2022/12/15 13:13:40;;;;;;;29.83;18.37;;;;;;;1.16;71.33;100025.84;1670099;84;21093;-75
2022/12/15 13:16:25;;;;;;;36.15;20.55;;;;;;;1.10;71.41;100023.30;1687563;84;21027;-76
2022/12/15 13:19:07;;;;;;;30.40;19.93;;;;;;;0.95;71.18;100023.37;1669132;84;21087;-76
2022/12/15 13:21:47;;;;;;;28.57;18.77;;;;;;;0.79;71.43;100022.12;1689201;83;21043;-77
2022/12/15 13:24:46;;;;;;;32.65;19.00;;;;;;;0.64;71.30;100025.62;1692239;83;21155;-76
2022/12/15 13:27:15;;;;;;;30.93;19.60;;;;;;;0.60;71.40;100021.31;1687626;83;21495;-76
2022/12/15 13:29:59;;;;;;;33.70;20.03;;;;;;;0.56;71.48;100020.06;1697639;84;21105;-82
2022/12/15 13:32:34;;;;;;;31.43;18.67;;;;;;;0.61;71.76;100024.75;1699024;84;21010;-80
2022/12/15 13:35:13;;;;;;;33.27;20.67;;;;;;;0.72;71.85;100028.59;1698775;84;21602;-77
2022/12/15 13:38:01;;;;;;;36.53;20.90;;;;;;;0.75;71.68;100020.44;1698518;84;21152;-79
2022/12/15 13:40:41;;;;;;;32.83;19.77;;;;;;;0.79;71.64;100019.98;1698627;84;21013;-77
2022/12/15 13:43:33;;;;;;;35.67;21.30;;;;;;;0.74;71.65;100016.12;1698735;84;21093;-77
2022/12/15 13:46:12;;;;;;;32.13;19.77;;;;;;;0.49;71.55;100006.73;1698483;84;21551;-76
2022/12/15 13:48:49;;;;;;;37.73;22.73;;;;;;;0.33;71.50;100011.06;1698627;84;21013;-76
2022/12/15 13:51:33;;;;;;;115.07;50.97;;;;;;;0.15;71.56;100012.81;1698203;84;21134;-78
2022/12/15 13:54:20;;;;;;;129.93;63.40;;;;;;;-0.04;71.49;100020.13;1697990;84;21527;-75
2022/12/15 13:57:03;;;;;;;79.53;39.80;;;;;;;-0.21;71.57;100021.84;1697402;84;21079;-76
2022/12/15 13:59:41;;;;;;;53.80;29.50;;;;;;;-0.30;71.91;100029.98;1697535;84;21090;-76
2022/12/15 14:02:32;;;;;;;52.33;28.90;;;;;;;-0.32;72.05;100032.98;1697315;84;21085;-74
2022/12/15 14:05:07;;;;;;;59.90;32.07;;;;;;;-0.33;72.10;100032.56;1697641;84;21123;-74
2022/12/15 14:07:34;;;;;;;60.77;32.60;;;;;;;-0.43;71.96;100041.13;1697330;84;20926;-76
2022/12/15 14:10:06;;;;;;;47.80;25.50;;;;;;;-0.52;72.01;100043.69;1697570;84;21025;-75